Time;durP1;ratioP1;P1;durP2;ratioP2;P2;SDS_P1;SDS_P2;PMS_P1;PMS_P2;Temp;Humidity;BMP_temperature;BMP_pressure;BME280_temperature;BME280_humidity;BME280_pressure;Samples;Min_cycle;Max_cycle;Signal;HPM_P1;HPM_P2
2023/07/27 00:01:24;;;;;;;2.73;2.53;;;;;;;14.58;86.05;100102.84;5080065;28;20209;-84
2023/07/27 00:03:50;;;;;;;2.87;2.67;;;;;;;14.60;85.95;100094.91;5080121;28;20232;-84
2023/07/27 00:06:16;;;;;;;3.20;2.80;;;;;;;14.62;86.44;100077.31;5079350;28;20204;-85
2023/07/27 00:08:43;;;;;;;3.10;2.90;;;;;;;14.59;85.85;100090.56;5078080;28;20224;-84
2023/07/27 00:11:09;;;;;;;3.40;3.10;;;;;;;14.53;85.65;100089.03;5078855;28;20204;-86
2023/07/27 00:13:36;;;;;;;3.27;2.97;;;;;;;14.54;85.65;100090.72;5077661;28;20228;-84
2023/07/27 00:16:02;;;;;;;5.63;3.30;;;;;;;14.50;85.73;100086.50;5079013;28;20212;-85
2023/07/27 00:18:30;;;;;;;3.40;3.10;;;;;;;14.48;86.26;100073.44;5079441;28;20211;-85
2023/07/27 00:20:56;;;;;;;3.63;3.33;;;;;;;14.44;86.36;100073.63;5079267;28;20212;-85
2023/07/27 00:23:23;;;;;;;3.17;2.87;;;;;;;14.41;86.50;100069.38;5077783;28;20590;-85
2023/07/27 00:25:49;;;;;;;4.07;2.90;;;;;;;14.43;86.68;100064.03;5079016;28;20671;-85
2023/07/27 00:28:16;;;;;;;3.00;2.80;;;;;;;14.38;87.34;100058.97;5078769;28;20208;-84
2023/07/27 00:30:42;;;;;;;3.93;3.20;;;;;;;14.37;87.11;100049.41;5078747;28;20208;-84
2023/07/27 00:33:08;;;;;;;2.90;2.70;;;;;;;14.34;87.40;100044.25;5080159;28;20228;-86
2023/07/27 00:35:36;;;;;;;3.10;2.87;;;;;;;14.33;87.13;100047.81;5075893;28;20205;-85
2023/07/27 00:38:03;;;;;;;4.03;3.60;;;;;;;14.32;87.00;100046.09;5067168;28;20205;-85
2023/07/27 00:40:29;;;;;;;6.67;3.00;;;;;;;14.28;88.36;100018.25;5079537;28;20212;-85
2023/07/27 00:42:55;;;;;;;3.40;3.20;;;;;;;14.27;87.98;100013.91;5079189;28;20220;-84
2023/07/27 00:45:22;;;;;;;4.70;4.40;;;;;;;14.25;88.14;100014.00;5075874;28;20354;-84
2023/07/27 00:47:49;;;;;;;4.27;3.97;;;;;;;14.27;88.42;100004.28;5076821;28;20205;-85
2023/07/27 00:50:15;;;;;;;3.53;3.33;;;;;;;14.23;88.24;100002.72;5076947;28;20259;-84
2023/07/27 00:52:43;;;;;;;3.40;3.03;;;;;;;14.26;88.94;99989.44;5077487;28;20236;-85
2023/07/27 00:55:10;;;;;;;6.43;3.90;;;;;;;14.25;88.51;99990.38;5079736;28;20604;-84
2023/07/27 00:57:36;;;;;;;4.27;3.97;;;;;;;14.23;88.10;99999.22;5078440;28;20205;-85
2023/07/27 01:00:03;;;;;;;4.33;4.03;;;;;;;14.25;88.55;99994.75;5076539;28;20212;-84
2023/07/27 01:02:29;;;;;;;4.60;3.43;;;;;;;14.19;89.09;99984.50;5075733;28;20256;-84
2023/07/27 01:04:56;;;;;;;3.77;3.50;;;;;;;14.17;88.91;99983.72;5077007;28;20258;-85
2023/07/27 01:07:22;;;;;;;3.33;3.10;;;;;;;14.21;89.04;99972.16;5077673;28;20221;-84
2023/07/27 01:09:50;;;;;;;4.30;3.70;;;;;;;14.23;88.62;99979.09;5079744;28;20611;-85
2023/07/27 01:12:24;;;;;;;3.67;3.37;;;;;;;14.19;89.34;99974.88;5075602;28;20208;-85
2023/07/27 01:15:00;;;;;;;4.27;3.93;;;;;;;14.18;88.50;99980.19;5074560;28;20212;-84
2023/07/27 01:17:33;;;;;;;4.17;3.83;;;;;;;14.21;88.55;99988.78;5074100;28;20207;-84
2023/07/27 01:20:16;;;;;;;3.97;3.53;;;;;;;14.22;88.51;99984.41;5074420;28;20666;-84
2023/07/27 01:23:17;;;;;;;3.37;3.07;;;;;;;14.17;89.86;99957.47;5077604;28;20232;-85
2023/07/27 01:26:18;;;;;;;3.70;3.50;;;;;;;14.12;89.76;99941.06;5078953;28;20309;-85
2023/07/27 01:29:03;;;;;;;3.80;3.50;;;;;;;14.17;89.58;99947.84;5070853;28;20252;-84
2023/07/27 01:31:33;;;;;;;5.53;3.77;;;;;;;14.18;90.23;99939.03;5056670;28;20205;-85
2023/07/27 01:34:02;;;;;;;4.57;3.73;;;;;;;14.21;90.39;99925.78;5054329;28;20232;-81
2023/07/27 01:36:35;;;;;;;3.93;3.60;;;;;;;14.17;89.72;99933.84;5056506;28;20264;-85
2023/07/27 01:39:04;;;;;;;3.23;3.03;;;;;;;14.18;90.45;99925.06;5055449;28;20216;-84
2023/07/27 01:41:32;;;;;;;3.70;3.40;;;;;;;14.18;90.68;99922.44;5054573;28;20756;-84
2023/07/27 01:44:01;;;;;;;3.53;3.33;;;;;;;14.17;90.20;99916.34;5056518;28;20267;-85
2023/07/27 01:46:31;;;;;;;3.83;3.47;;;;;;;14.18;90.13;99907.53;5060294;28;20205;-85
2023/07/27 01:49:00;;;;;;;4.93;3.83;;;;;;;14.15;89.38;99925.19;5058226;28;20216;-85
2023/07/27 01:51:28;;;;;;;4.10;3.63;;;;;;;14.15;89.26;99928.66;5058863;28;20729;-86
2023/07/27 01:53:55;;;;;;;5.37;3.30;;;;;;;14.18;89.25;99931.16;5058661;28;20233;-83
2023/07/27 01:56:24;;;;;;;3.77;3.47;;;;;;;14.17;89.33;99932.09;5053345;28;20236;-85
2023/07/27 01:58:52;;;;;;;4.27;3.93;;;;;;;14.20;89.37;99921.44;5064513;28;20282;-85
2023/07/27 02:01:20;;;;;;;3.77;3.47;;;;;;;14.16;89.31;99930.38;5070703;28;20663;-85
2023/07/27 02:03:47;;;;;;;3.80;3.30;;;;;;;14.18;89.41;99932.94;5073300;28;20224;-84
2023/07/27 02:06:15;;;;;;;4.27;3.97;;;;;;;14.20;88.65;99937.19;5075469;28;20578;-85
2023/07/27 02:08:41;;;;;;;4.03;3.63;;;;;;;14.25;88.48;99931.75;5075472;28;20212;-84
2023/07/27 02:11:12;;;;;;;4.00;3.47;;;;;;;14.28;88.88;99924.59;5075569;28;20666;-85
2023/07/27 02:13:43;;;;;;;4.23;3.73;;;;;;;14.32;87.88;99940.22;5075664;28;20231;-84
2023/07/27 02:16:16;;;;;;;3.97;3.63;;;;;;;14.31;87.76;99947.25;5075125;28;20211;-84
2023/07/27 02:18:46;;;;;;;3.90;3.60;;;;;;;14.34;86.88;99959.41;5075290;28;20212;-84
2023/07/27 02:21:15;;;;;;;4.03;3.60;;;;;;;14.38;87.61;99958.34;5075345;28;20208;-84
2023/07/27 02:23:42;;;;;;;4.17;3.37;;;;;;;14.44;88.43;99942.31;5074920;28;20231;-84
2023/07/27 02:26:08;;;;;;;4.63;4.03;;;;;;;14.45;87.05;99949.31;5074416;28;20706;-83
2023/07/27 02:28:35;;;;;;;4.23;3.93;;;;;;;14.41;86.24;99971.34;5074385;28;20220;-84
2023/07/27 02:31:01;;;;;;;4.30;4.00;;;;;;;14.43;86.71;99961.63;5075252;28;20588;-84
2023/07/27 02:33:28;;;;;;;3.60;3.30;;;;;;;14.46;86.42;99961.50;5065627;28;20225;-84
2023/07/27 02:35:55;;;;;;;3.57;3.27;;;;;;;14.47;87.61;99943.06;5054959;28;20198;-84
2023/07/27 02:38:22;;;;;;;3.50;3.30;;;;;;;14.41;87.49;99938.06;5054864;28;20216;-84
2023/07/27 02:40:50;;;;;;;3.37;3.13;;;;;;;14.40;89.33;99912.72;5054964;28;20586;-84
2023/07/27 02:43:17;;;;;;;3.40;3.20;;;;;;;14.40;88.39;99912.72;5054466;28;20226;-84
2023/07/27 02:45:44;;;;;;;4.43;3.70;;;;;;;14.41;88.30;99918.81;5053598;28;20255;-85
2023/07/27 02:48:10;;;;;;;3.70;3.40;;;;;;;14.39;87.45;99937.28;5054461;28;20232;-84
2023/07/27 02:50:37;;;;;;;3.57;3.27;;;;;;;14.44;86.76;99934.44;5054940;28;20206;-84
2023/07/27 02:53:03;;;;;;;3.37;3.07;;;;;;;14.41;88.69;99906.56;5054600;28;20233;-84
2023/07/27 02:55:31;;;;;;;3.40;3.10;;;;;;;14.41;89.10;99888.19;5054277;28;20266;-84
2023/07/27 02:57:57;;;;;;;3.43;3.13;;;;;;;14.43;89.66;99873.22;5060796;28;20254;-84
2023/07/27 03:00:24;;;;;;;4.87;4.10;;;;;;;14.46;89.15;99873.06;5054286;28;20211;-84
2023/07/27 03:02:50;;;;;;;3.30;3.10;;;;;;;14.48;89.94;99867.75;5054565;28;20629;-84
2023/07/27 03:05:16;;;;;;;3.73;2.80;;;;;;;14.43;89.86;99849.56;5054383;28;20229;-82
2023/07/27 03:07:43;;;;;;;4.13;3.00;;;;;;;14.44;90.30;99846.00;5054295;28;20212;-84
2023/07/27 03:10:10;;;;;;;4.40;3.10;;;;;;;14.42;90.03;99834.72;5054906;28;20676;-85
2023/07/27 03:12:37;;;;;;;3.13;2.83;;;;;;;14.42;90.59;99833.88;5054573;28;20236;-84
2023/07/27 03:15:05;;;;;;;3.63;3.13;;;;;;;14.43;89.87;99840.81;5054522;28;20204;-84
2023/07/27 03:17:31;;;;;;;4.77;3.30;;;;;;;14.40;90.08;99833.94;5053127;28;20864;-84
2023/07/27 03:19:58;;;;;;;4.57;3.17;;;;;;;14.41;90.19;99840.03;5061663;28;20206;-84
2023/07/27 03:22:24;;;;;;;3.83;3.40;;;;;;;14.43;91.03;99823.31;5074817;28;20716;-84
2023/07/27 03:24:51;;;;;;;3.80;3.60;;;;;;;14.45;90.32;99829.34;5074978;28;20224;-84
2023/07/27 03:27:17;;;;;;;3.90;3.50;;;;;;;14.47;90.22;99834.53;5074991;28;20220;-83
2023/07/27 03:29:45;;;;;;;3.90;3.60;;;;;;;14.47;89.50;99835.38;5074586;28;20246;-84
2023/07/27 03:32:11;;;;;;;4.87;4.53;;;;;;;14.47;89.00;99847.66;5074692;28;20208;-84
2023/07/27 03:34:38;;;;;;;4.23;3.50;;;;;;;14.50;89.26;99853.63;5072560;28;20238;-84
2023/07/27 03:37:05;;;;;;;4.13;3.83;;;;;;;14.57;88.48;99861.25;5054272;28;20210;-84
2023/07/27 03:39:31;;;;;;;3.93;3.63;;;;;;;14.61;88.11;99865.47;5054363;28;20671;-84
2023/07/27 03:41:57;;;;;;;4.60;4.20;;;;;;;14.58;87.44;99894.50;5054588;28;20204;-85
2023/07/27 03:44:24;;;;;;;3.83;3.53;;;;;;;14.63;86.74;99900.41;5054121;28;20233;-84
2023/07/27 03:46:52;;;;;;;4.63;4.23;;;;;;;14.61;86.05;99921.47;5071140;28;20204;-84
2023/07/27 03:49:18;;;;;;;4.03;3.63;;;;;;;14.61;85.81;99942.50;5065463;28;20206;-84
2023/07/27 03:51:44;;;;;;;3.43;3.20;;;;;;;14.72;84.86;99943.78;5065239;28;20218;-84
2023/07/27 03:54:11;;;;;;;4.30;3.90;;;;;;;14.72;84.89;99943.78;5073906;28;20274;-83
2023/07/27 03:56:37;;;;;;;3.70;3.40;;;;;;;14.76;85.25;99937.47;5074288;28;20667;-83
2023/07/27 03:59:04;;;;;;;3.83;3.53;;;;;;;14.86;86.40;99917.75;5074882;28;20201;-82
2023/07/27 04:01:30;;;;;;;4.40;3.47;;;;;;;14.85;85.97;99923.94;5074302;28;20208;-82
2023/07/27 04:03:58;;;;;;;3.40;3.10;;;;;;;14.85;85.34;99924.78;5073826;28;20695;-83
2023/07/27 04:06:24;;;;;;;3.40;3.20;;;;;;;14.88;85.56;99929.91;5074412;28;20224;-83
2023/07/27 04:08:51;;;;;;;3.47;3.17;;;;;;;14.92;85.24;99922.72;5074066;28;20201;-84
2023/07/27 04:11:17;;;;;;;3.23;2.93;;;;;;;14.94;85.12;99938.44;5073809;28;20204;-83
2023/07/27 04:13:43;;;;;;;3.67;3.30;;;;;;;14.93;85.37;99929.69;5074466;28;20274;-82
2023/07/27 04:16:10;;;;;;;3.30;3.00;;;;;;;14.95;85.15;99930.47;5059371;28;20204;-82
2023/07/27 04:18:36;;;;;;;3.43;3.20;;;;;;;14.97;85.30;99925.16;5052806;28;20204;-83
2023/07/27 04:21:04;;;;;;;3.27;3.07;;;;;;;14.96;85.35;99926.06;5067487;28;20208;-85
2023/07/27 04:23:31;;;;;;;3.03;2.83;;;;;;;15.00;85.09;99936.38;5064939;28;20237;-82
2023/07/27 04:25:58;;;;;;;5.93;3.47;;;;;;;15.01;84.80;99935.47;5059035;28;20239;-84
2023/07/27 04:28:24;;;;;;;3.30;3.00;;;;;;;14.98;84.89;99932.94;5066577;28;20205;-86
2023/07/27 04:30:50;;;;;;;3.30;3.00;;;;;;;15.05;84.78;99930.91;5056070;28;20203;-87
2023/07/27 04:33:17;;;;;;;3.33;2.93;;;;;;;15.03;84.96;99933.63;5064387;28;20217;-87
2023/07/27 04:35:43;;;;;;;3.43;2.63;;;;;;;15.09;85.21;99927.22;5066271;28;20209;-84
2023/07/27 04:38:11;;;;;;;3.10;2.80;;;;;;;15.08;85.36;99912.38;5053778;28;20587;-84
2023/07/27 04:40:37;;;;;;;2.90;2.60;;;;;;;15.06;85.31;99914.22;5054463;28;20210;-84
2023/07/27 04:43:04;;;;;;;2.80;2.60;;;;;;;15.04;85.10;99909.03;5054736;28;20300;-84
2023/07/27 04:45:30;;;;;;;2.97;2.70;;;;;;;15.03;85.73;99896.81;5053994;28;20311;-84
2023/07/27 04:47:56;;;;;;;3.17;2.97;;;;;;;15.03;85.40;99893.34;5054111;28;20198;-84
2023/07/27 04:50:23;;;;;;;2.83;2.63;;;;;;;15.01;85.91;99882.03;5054425;28;20279;-84
2023/07/27 04:52:49;;;;;;;3.17;2.97;;;;;;;15.02;85.13;99889.84;5053568;28;20252;-84
2023/07/27 04:55:17;;;;;;;3.20;3.00;;;;;;;15.01;85.47;99889.94;5054295;28;20201;-82
2023/07/27 04:57:43;;;;;;;2.90;2.70;;;;;;;14.98;86.01;99883.00;5054074;28;20232;-85
2023/07/27 05:00:11;;;;;;;3.47;3.00;;;;;;;14.93;85.98;99871.88;5053746;28;20205;-84
2023/07/27 05:02:37;;;;;;;3.53;2.70;;;;;;;14.97;86.24;99862.09;5053873;28;20275;-84
2023/07/27 05:05:04;;;;;;;2.77;2.57;;;;;;;14.98;86.08;99864.63;5054171;28;20584;-84
2023/07/27 05:07:30;;;;;;;2.97;2.80;;;;;;;14.93;85.84;99866.63;5055747;28;20197;-84
2023/07/27 05:09:56;;;;;;;3.13;2.83;;;;;;;15.02;85.59;99858.28;5058223;28;20205;-84
2023/07/27 05:12:24;;;;;;;2.90;2.70;;;;;;;15.04;86.02;99842.47;5053175;28;20259;-85
2023/07/27 05:14:52;;;;;;;2.53;2.33;;;;;;;15.06;85.21;99856.38;5053489;28;20212;-85
2023/07/27 05:17:18;;;;;;;2.70;2.50;;;;;;;15.14;84.77;99862.13;5053563;28;20198;-84
2023/07/27 05:19:45;;;;;;;2.93;2.70;;;;;;;15.14;85.29;99869.16;5053580;28;20555;-84
2023/07/27 05:22:11;;;;;;;3.07;2.87;;;;;;;15.21;85.04;99870.59;5053644;28;20208;-84
2023/07/27 05:24:38;;;;;;;2.47;2.27;;;;;;;15.22;85.41;99870.53;5053715;28;20202;-85
2023/07/27 05:27:05;;;;;;;2.90;2.70;;;;;;;15.12;84.67;99890.25;5056276;28;20628;-85
2023/07/27 05:29:33;;;;;;;2.30;2.10;;;;;;;15.10;84.86;99886.84;5046973;28;20216;-86
2023/07/27 05:31:59;;;;;;;3.37;2.43;;;;;;;15.17;84.68;99884.81;5075506;28;20274;-84
2023/07/27 05:34:26;;;;;;;3.00;2.70;;;;;;;15.23;84.90;99890.63;5074974;28;20225;-85
2023/07/27 05:36:52;;;;;;;2.53;2.33;;;;;;;15.32;84.75;99897.25;5074842;28;20247;-84
2023/07/27 05:39:19;;;;;;;2.50;2.30;;;;;;;15.31;84.60;99898.16;5075325;28;20193;-84
2023/07/27 05:41:45;;;;;;;3.13;2.77;;;;;;;15.37;84.28;99900.50;5073383;28;20233;-85
2023/07/27 05:44:11;;;;;;;2.53;2.33;;;;;;;15.41;84.14;99906.47;5054750;28;20219;-84
2023/07/27 05:46:39;;;;;;;2.30;2.20;;;;;;;15.46;84.38;99904.44;5054024;28;20702;-85
2023/07/27 05:49:06;;;;;;;2.57;2.37;;;;;;;15.42;84.74;99900.25;5055478;28;20198;-84
2023/07/27 05:51:32;;;;;;;2.77;2.33;;;;;;;15.46;84.38;99904.44;5053360;28;20232;-84
2023/07/27 05:53:59;;;;;;;3.00;2.50;;;;;;;15.46;83.68;99915.84;5086586;22;20762;-82
2023/07/27 05:56:25;;;;;;;2.47;2.27;;;;;;;15.50;83.78;99921.81;5065652;28;20210;-82
2023/07/27 05:58:51;;;;;;;3.47;2.40;;;;;;;15.56;83.25;99920.66;5053738;28;20213;-80
2023/07/27 06:01:18;;;;;;;2.97;2.77;;;;;;;15.52;83.09;99930.50;5069354;28;20629;-81
2023/07/27 06:03:46;;;;;;;2.50;2.30;;;;;;;15.51;82.34;99957.69;5073499;28;20227;-80
2023/07/27 06:06:12;;;;;;;2.60;2.40;;;;;;;15.63;82.99;99943.13;5073240;28;20594;-83
2023/07/27 06:08:39;;;;;;;4.03;2.87;;;;;;;15.59;82.78;99944.19;5074478;28;20200;-84
2023/07/27 06:11:09;;;;;;;2.50;2.30;;;;;;;15.61;82.33;99964.22;5075398;28;20216;-84
2023/07/27 06:13:36;;;;;;;2.83;2.63;;;;;;;15.62;82.31;99949.31;5069329;28;20231;-84
2023/07/27 06:16:03;;;;;;;2.87;2.67;;;;;;;15.65;83.18;99955.25;5079677;28;20197;-82
2023/07/27 06:18:30;;;;;;;3.53;2.37;;;;;;;15.72;82.94;99950.56;5077704;28;20249;-82
2023/07/27 06:20:58;;;;;;;4.30;2.40;;;;;;;15.73;84.08;99931.25;5078131;28;20206;-82
2023/07/27 06:23:24;;;;;;;2.60;2.40;;;;;;;15.67;82.53;99953.41;5079053;28;20231;-83
2023/07/27 06:25:51;;;;;;;3.30;2.70;;;;;;;15.78;82.39;99949.47;5077908;28;20698;-81
2023/07/27 06:28:18;;;;;;;3.90;2.60;;;;;;;15.75;82.39;99960.13;5079708;28;20209;-80
2023/07/27 06:30:45;;;;;;;2.50;2.30;;;;;;;15.81;82.63;99960.66;5070271;28;20211;-82
2023/07/27 06:33:12;;;;;;;5.33;2.50;;;;;;;15.93;84.08;99932.91;5069805;28;20276;-81
2023/07/27 06:35:38;;;;;;;2.63;2.43;;;;;;;15.87;82.98;99941.09;5069632;28;20232;-83
2023/07/27 06:38:06;;;;;;;3.77;2.70;;;;;;;15.88;82.34;99943.66;5081704;28;20247;-80
2023/07/27 06:40:33;;;;;;;2.40;2.20;;;;;;;15.93;82.02;99958.38;5078501;28;20201;-80
2023/07/27 06:43:00;;;;;;;2.67;2.47;;;;;;;16.00;82.63;99947.47;5079946;28;20268;-80
2023/07/27 06:45:26;;;;;;;2.60;2.40;;;;;;;16.03;82.60;99942.03;5062511;28;20202;-80
2023/07/27 06:47:53;;;;;;;2.37;2.10;;;;;;;16.13;81.99;99954.75;5060179;28;20685;-80
2023/07/27 06:50:19;;;;;;;3.03;2.83;;;;;;;16.07;80.86;99992.78;5068715;28;20235;-83
2023/07/27 06:52:46;;;;;;;2.53;2.33;;;;;;;16.00;80.50;99996.66;5073792;28;20206;-83
2023/07/27 06:55:14;;;;;;;2.80;2.57;;;;;;;15.95;81.39;99982.84;5085633;28;20258;-83
2023/07/27 06:57:40;;;;;;;4.53;2.40;;;;;;;16.00;82.32;99965.91;5082835;28;20216;-82
2023/07/27 07:00:08;;;;;;;3.10;2.70;;;;;;;16.00;82.34;99954.53;5079812;28;20513;-80
2023/07/27 07:02:35;;;;;;;2.37;2.27;;;;;;;16.03;85.02;99910.44;5072928;28;20225;-79
2023/07/27 07:05:02;;;;;;;2.83;2.40;;;;;;;16.06;85.38;99880.50;5075152;28;20239;-80
2023/07/27 07:07:29;;;;;;;3.53;2.80;;;;;;;16.00;84.35;99900.09;5072939;28;20320;-81
2023/07/27 07:09:56;;;;;;;2.60;2.40;;;;;;;16.08;85.23;99884.75;5073423;28;20233;-79
2023/07/27 07:12:24;;;;;;;3.60;2.90;;;;;;;15.87;85.25;99870.03;5073412;28;20213;-80
2023/07/27 07:14:51;;;;;;;3.03;2.53;;;;;;;16.00;85.66;99863.25;5073391;28;20675;-80
2023/07/27 07:17:18;;;;;;;2.83;2.60;;;;;;;16.01;87.17;99821.97;5073373;28;20205;-79
2023/07/27 07:19:45;;;;;;;2.73;2.53;;;;;;;16.04;87.07;99814.75;5073120;28;20300;-81
2023/07/27 07:22:11;;;;;;;2.73;2.53;;;;;;;16.12;87.56;99792.47;5076522;28;20205;-81
2023/07/27 07:24:38;;;;;;;5.53;3.03;;;;;;;16.07;88.69;99776.88;5080788;28;20233;-83
2023/07/27 07:27:04;;;;;;;3.70;3.00;;;;;;;16.03;88.11;99784.09;5084292;28;20216;-81
2023/07/27 07:29:32;;;;;;;3.37;2.60;;;;;;;16.05;88.53;99779.63;5080499;28;20289;-83
2023/07/27 07:31:59;;;;;;;2.90;2.63;;;;;;;16.07;89.08;99759.31;5081634;28;20208;-80
2023/07/27 07:34:26;;;;;;;3.10;2.80;;;;;;;16.08;89.86;99744.38;5076962;28;20709;-81
2023/07/27 07:36:52;;;;;;;3.77;2.73;;;;;;;16.15;91.32;99722.03;5077047;28;20210;-79
2023/07/27 07:39:19;;;;;;;3.20;2.90;;;;;;;16.17;91.68;99695.63;5077709;28;20201;-79
2023/07/27 07:41:45;;;;;;;3.00;2.80;;;;;;;16.10;92.41;99678.47;5078625;28;20261;-79
2023/07/27 07:44:12;;;;;;;3.00;2.80;;;;;;;16.12;93.24;99651.13;5077768;28;20228;-80
2023/07/27 07:46:40;;;;;;;3.20;3.00;;;;;;;16.17;93.69;99646.44;5077297;28;20234;-80
2023/07/27 07:49:07;;;;;;;3.40;3.10;;;;;;;16.19;95.11;99615.59;5077643;28;20224;-78
2023/07/27 07:51:33;;;;;;;3.70;3.40;;;;;;;16.23;94.93;99617.16;5076051;28;20297;-78
2023/07/27 07:54:00;;;;;;;3.30;3.00;;;;;;;16.20;94.62;99627.84;5076798;28;20237;-81
2023/07/27 07:56:26;;;;;;;3.10;2.80;;;;;;;16.22;95.41;99611.97;5078384;28;20320;-82
2023/07/27 07:58:53;;;;;;;3.73;3.43;;;;;;;16.23;94.71;99618.94;5071900;28;20652;-79
2023/07/27 08:01:19;;;;;;;3.27;2.97;;;;;;;16.15;94.32;99619.34;5067399;28;20202;-80
2023/07/27 08:03:47;;;;;;;2.90;2.60;;;;;;;16.22;94.04;99631.25;5066939;28;20645;-82
2023/07/27 08:06:13;;;;;;;3.20;2.90;;;;;;;16.07;94.37;99630.31;5066438;28;20248;-80
2023/07/27 08:08:40;;;;;;;5.07;3.03;;;;;;;16.08;95.64;99592.53;5068180;28;20242;-81
2023/07/27 08:11:09;;;;;;;3.10;2.90;;;;;;;16.14;95.66;99587.84;5068953;28;20254;-80
2023/07/27 08:13:35;;;;;;;3.43;3.13;;;;;;;16.15;94.88;99597.44;5066667;28;20712;-77
2023/07/27 08:16:03;;;;;;;3.10;2.90;;;;;;;16.21;96.03;99576.03;5066484;28;20217;-79
2023/07/27 08:18:31;;;;;;;3.30;2.97;;;;;;;16.22;96.47;99562.78;5060486;28;20236;-79
2023/07/27 08:21:00;;;;;;;4.00;3.70;;;;;;;16.24;96.72;99555.66;5057502;28;20266;-78
2023/07/27 08:23:27;;;;;;;4.43;3.37;;;;;;;16.26;97.31;99537.97;5061063;28;20213;-77
2023/07/27 08:25:54;;;;;;;3.93;3.63;;;;;;;16.30;97.04;99532.53;5063045;28;20267;-77
2023/07/27 08:28:21;;;;;;;3.80;3.47;;;;;;;16.36;97.56;99526.91;5062880;28;20231;-78
2023/07/27 08:30:48;;;;;;;3.33;3.13;;;;;;;16.34;97.96;99518.25;5063735;28;20234;-77
2023/07/27 08:33:14;;;;;;;3.70;3.40;;;;;;;16.39;98.00;99513.56;5065246;28;20244;-78
2023/07/27 08:35:41;;;;;;;3.67;3.40;;;;;;;16.44;98.48;99504.47;5070195;28;20199;-79
2023/07/27 08:38:08;;;;;;;3.73;2.80;;;;;;;16.46;98.52;99494.69;5076434;28;20207;-79
2023/07/27 08:40:35;;;;;;;3.60;3.30;;;;;;;16.51;97.92;99490.91;5077307;28;20209;-79
2023/07/27 08:43:04;;;;;;;3.63;3.33;;;;;;;16.37;99.42;99474.16;5077423;28;20593;-78
2023/07/27 08:45:31;;;;;;;3.03;2.83;;;;;;;16.38;100.00;99446.88;5076562;28;20741;-79
2023/07/27 08:47:59;;;;;;;4.27;3.87;;;;;;;16.46;100.00;99444.63;5076562;28;20349;-80
2023/07/27 08:50:26;;;;;;;3.53;3.23;;;;;;;16.51;100.00;99439.09;5076363;28;20216;-79
2023/07/27 08:52:53;;;;;;;3.90;3.60;;;;;;;16.57;100.00;99422.94;5076833;28;20207;-78
2023/07/27 08:55:21;;;;;;;4.13;3.43;;;;;;;16.60;100.00;99429.78;5070611;28;20276;-78
2023/07/27 08:57:47;;;;;;;4.00;3.70;;;;;;;16.62;100.00;99443.72;5068525;28;20681;-78
2023/07/27 09:00:15;;;;;;;5.03;3.60;;;;;;;16.65;100.00;99446.19;5076733;28;20202;-79
2023/07/27 09:02:42;;;;;;;4.03;3.73;;;;;;;16.69;100.00;99426.59;5075766;28;20233;-81
2023/07/27 09:05:10;;;;;;;3.90;3.60;;;;;;;16.74;100.00;99437.69;5064908;28;20204;-78
2023/07/27 09:07:36;;;;;;;6.07;3.90;;;;;;;16.73;100.00;99441.28;5055274;28;20255;-79
2023/07/27 09:10:07;;;;;;;4.37;3.67;;;;;;;16.73;100.00;99450.97;5057865;28;20206;-81
2023/07/27 09:12:35;;;;;;;3.73;3.40;;;;;;;16.75;100.00;99449.09;5072471;28;20197;-81
2023/07/27 09:15:11;;;;;;;4.20;3.80;;;;;;;16.77;100.00;99453.34;5078333;28;20218;-80
2023/07/27 09:17:38;;;;;;;4.37;3.80;;;;;;;16.81;99.21;99465.44;5077506;28;20205;-79
2023/07/27 09:20:09;;;;;;;3.73;3.43;;;;;;;16.83;99.50;99473.25;5077219;28;20256;-80
2023/07/27 09:22:37;;;;;;;4.37;3.80;;;;;;;16.84;99.18;99481.03;5076229;28;20206;-79
2023/07/27 09:25:03;;;;;;;4.03;3.40;;;;;;;16.84;99.21;99488.94;5076626;28;20207;-81
2023/07/27 09:27:43;;;;;;;4.07;3.77;;;;;;;16.78;98.82;99494.56;5076589;28;20226;-79
2023/07/27 09:30:11;;;;;;;3.80;3.50;;;;;;;16.73;99.33;99496.63;5075473;28;20222;-80
2023/07/27 09:32:37;;;;;;;4.97;3.23;;;;;;;16.78;98.58;99496.34;5075816;28;20256;-79
2023/07/27 09:35:06;;;;;;;3.60;3.30;;;;;;;16.79;97.53;99521.78;5076544;28;20210;-80
2023/07/27 09:37:32;;;;;;;3.93;3.63;;;;;;;16.80;97.73;99528.72;5075814;28;20206;-79
2023/07/27 09:40:08;;;;;;;4.33;3.93;;;;;;;16.78;98.43;99509.53;5076457;28;20207;-79
2023/07/27 09:42:38;;;;;;;3.60;3.40;;;;;;;16.75;98.13;99504.44;5075583;28;20223;-79
2023/07/27 09:45:07;;;;;;;4.27;3.97;;;;;;;16.71;100.00;99479.19;5075921;28;20203;-79
2023/07/27 09:47:33;;;;;;;4.13;3.83;;;;;;;16.69;100.00;99445.06;5076078;28;20225;-78
2023/07/27 09:50:00;;;;;;;3.97;3.67;;;;;;;16.71;100.00;99419.47;5076325;28;20217;-79
2023/07/27 09:52:28;;;;;;;4.93;3.60;;;;;;;16.73;100.00;99403.53;5075876;28;20286;-79
2023/07/27 09:54:56;;;;;;;3.60;3.20;;;;;;;16.77;100.00;99394.50;5075677;28;20232;-79
2023/07/27 09:57:23;;;;;;;3.93;3.63;;;;;;;16.74;100.00;99387.63;5075169;28;20263;-81
2023/07/27 09:59:49;;;;;;;3.50;3.20;;;;;;;16.66;100.00;99382.00;5076438;28;20240;-80
2023/07/27 10:02:18;;;;;;;3.77;3.47;;;;;;;16.70;100.00;99378.22;5073041;28;20210;-81
2023/07/27 10:04:46;;;;;;;4.03;3.70;;;;;;;16.75;100.00;99377.94;5054848;28;20272;-80
2023/07/27 10:07:13;;;;;;;5.97;4.30;;;;;;;16.74;100.00;99365.72;5055363;28;20366;-79
2023/07/27 10:09:41;;;;;;;4.00;3.70;;;;;;;16.70;100.00;99369.47;5056586;28;20205;-80
2023/07/27 10:12:08;;;;;;;3.80;3.50;;;;;;;16.68;100.00;99345.84;5055671;28;20290;-79
2023/07/27 10:14:35;;;;;;;4.43;4.03;;;;;;;16.60;100.00;99324.41;5055143;28;20368;-80
2023/07/27 10:17:02;;;;;;;3.50;3.27;;;;;;;16.65;100.00;99322.34;5054555;28;20201;-79
2023/07/27 10:19:44;;;;;;;3.37;3.07;;;;;;;16.65;100.00;99340.78;5056810;28;20205;-80
2023/07/27 10:22:13;;;;;;;3.30;3.07;;;;;;;16.43;100.00;99364.94;5055721;28;20218;-79
2023/07/27 10:24:50;;;;;;;3.57;3.37;;;;;;;16.48;100.00;99345.28;5058782;28;20312;-80
2023/07/27 10:27:17;;;;;;;3.40;3.10;;;;;;;16.52;100.00;99358.28;5060879;28;20264;-80
2023/07/27 10:29:48;;;;;;;3.37;3.17;;;;;;;16.50;100.00;99342.56;5065664;28;20207;-80
2023/07/27 10:32:14;;;;;;;3.13;2.83;;;;;;;16.53;100.00;99350.28;5080473;28;20210;-80
2023/07/27 10:34:42;;;;;;;3.23;2.93;;;;;;;16.62;100.00;99344.44;5079100;28;20225;-81
2023/07/27 10:37:09;;;;;;;3.30;2.87;;;;;;;16.65;100.00;99340.78;5078539;28;20733;-81
2023/07/27 10:39:44;;;;;;;3.40;3.07;;;;;;;16.67;100.00;99338.91;5078070;28;20205;-80
2023/07/27 10:42:13;;;;;;;2.90;2.70;;;;;;;16.77;100.00;99333.88;5078902;28;20235;-79
2023/07/27 10:44:44;;;;;;;3.20;2.90;;;;;;;16.76;100.00;99309.31;5079271;28;20693;-80
2023/07/27 10:47:12;;;;;;;2.70;2.50;;;;;;;16.82;100.00;99305.50;5078739;28;20232;-80
2023/07/27 10:49:40;;;;;;;2.37;2.27;;;;;;;16.82;100.00;99323.94;5080029;28;20669;-80
2023/07/27 10:52:08;;;;;;;2.60;2.40;;;;;;;16.87;100.00;99325.34;5078711;28;20239;-78
2023/07/27 10:54:38;;;;;;;2.60;2.33;;;;;;;16.63;100.00;99353.19;5079096;28;20235;-79
2023/07/27 10:57:07;;;;;;;2.00;1.90;;;;;;;16.65;100.00;99361.88;5079673;28;20293;-81
2023/07/27 10:59:37;;;;;;;2.43;2.23;;;;;;;16.70;100.00;99354.50;5080560;28;20199;-80
2023/07/27 11:02:05;;;;;;;2.60;1.80;;;;;;;16.76;100.00;99342.75;5082529;28;20207;-81
2023/07/27 11:04:33;;;;;;;2.07;1.97;;;;;;;16.81;100.00;99319.59;5067212;28;20220;-79
2023/07/27 11:07:00;;;;;;;1.97;1.87;;;;;;;16.90;100.00;99320.81;5059418;28;20234;-79
2023/07/27 11:09:28;;;;;;;2.07;1.97;;;;;;;16.91;100.00;99318.09;5058745;28;20206;-81
2023/07/27 11:12:00;;;;;;;1.80;1.70;;;;;;;16.81;100.00;99323.09;5059599;28;20212;-80
2023/07/27 11:14:26;;;;;;;2.00;1.90;;;;;;;16.85;100.00;99318.50;5070960;28;20225;-79
2023/07/27 11:16:53;;;;;;;2.10;2.00;;;;;;;16.94;100.00;99324.97;5078450;28;20590;-80
2023/07/27 11:19:19;;;;;;;1.80;1.70;;;;;;;16.72;100.00;99326.28;5078769;28;20712;-80
2023/07/27 11:21:46;;;;;;;1.80;1.70;;;;;;;16.73;100.00;99327.97;5080013;28;20198;-80
2023/07/27 11:24:16;;;;;;;1.70;1.60;;;;;;;16.79;100.00;99321.47;5077502;28;20225;-81
2023/07/27 11:26:43;;;;;;;1.80;1.70;;;;;;;16.78;100.00;99311.88;5079009;28;20304;-80
2023/07/27 11:29:10;;;;;;;1.97;1.70;;;;;;;16.80;100.00;99318.72;5076156;28;20203;-81
2023/07/27 11:31:36;;;;;;;1.63;1.53;;;;;;;16.72;100.00;99312.25;5076792;28;20238;-79
2023/07/27 11:34:04;;;;;;;1.40;1.40;;;;;;;16.76;100.00;99313.75;5078168;28;20276;-78